Hennepin, Illinois
Current Conditions -  °F | °C
As of 3:55 AM on Friday 19 Dec 2014 (Local Time) from KVYS Reporting Station
Overcast Overcast  
Wind Chill: 13°   Ceiling: 1800
Heat Index: 20°   Visibility: 7mi
Dew Point: 17°   Wind: 5mph
Humidity: 88%   Direction: 290°WNW
Pressure: 30.29"   Gusts: NA
Location:  41.25°N, 89.34°W
Report Text: KVYS 190955Z AUTO 29004KT 7SM OVC018 M07/M08 A3029 RMK AO2 T10681085
Loading
Personal Weather Stations






























Interactive Weather Map New forecast layout! Learn more

10-Day Weather Forecast

Advertisements
Track Severe Weather on mobile